sensor_id;sensor_type;location;lat;lon;timestamp;pressure;altitude;pressure_sealevel;temperature;humidity
10060;BME280;5069;49.306;8.636;2023-04-21T00:02:58;100207.06;;;8.10;100.00
10060;BME280;5069;49.306;8.636;2023-04-21T00:06:00;100203.63;;;8.08;100.00
10060;BME280;5069;49.306;8.636;2023-04-21T00:09:01;100203.81;;;8.02;100.00
10060;BME280;5069;49.306;8.636;2023-04-21T00:12:03;100193.38;;;7.99;100.00
10060;BME280;5069;49.306;8.636;2023-04-21T00:15:05;100208.41;;;7.92;100.00
10060;BME280;5069;49.306;8.636;2023-04-21T00:18:07;100201.88;;;7.74;100.00
10060;BME280;5069;49.306;8.636;2023-04-21T00:21:09;100195.09;;;7.66;100.00
10060;BME280;5069;49.306;8.636;2023-04-21T00:24:11;100205.97;;;7.51;100.00
10060;BME280;5069;49.306;8.636;2023-04-21T00:27:12;100203.59;;;7.40;100.00
10060;BME280;5069;49.306;8.636;2023-04-21T00:30:16;100189.88;;;7.29;100.00
10060;BME280;5069;49.306;8.636;2023-04-21T00:33:17;100193.41;;;7.28;100.00
10060;BME280;5069;49.306;8.636;2023-04-21T00:36:19;100190.84;;;7.25;100.00
10060;BME280;5069;49.306;8.636;2023-04-21T00:39:20;100186.34;;;7.30;100.00
10060;BME280;5069;49.306;8.636;2023-04-21T00:42:22;100189.81;;;7.32;100.00
10060;BME280;5069;49.306;8.636;2023-04-21T00:45:23;100180.53;;;7.17;100.00
10060;BME280;5069;49.306;8.636;2023-04-21T00:48:25;100181.69;;;7.05;100.00
10060;BME280;5069;49.306;8.636;2023-04-21T00:51:27;100181.00;;;6.96;100.00
10060;BME280;5069;49.306;8.636;2023-04-21T00:54:29;100179.16;;;7.01;100.00
10060;BME280;5069;49.306;8.636;2023-04-21T00:57:32;100178.25;;;7.02;100.00
10060;BME280;5069;49.306;8.636;2023-04-21T01:00:37;100176.44;;;7.05;100.00
10060;BME280;5069;49.306;8.636;2023-04-21T01:03:40;100164.97;;;7.11;100.00
10060;BME280;5069;49.306;8.636;2023-04-21T01:06:43;100165.81;;;7.12;100.00
10060;BME280;5069;49.306;8.636;2023-04-21T01:09:45;100171.88;;;7.14;100.00
10060;BME280;5069;49.306;8.636;2023-04-21T01:12:46;100169.34;;;7.11;100.00
10060;BME280;5069;49.306;8.636;2023-04-21T01:15:48;100167.53;;;7.13;100.00
10060;BME280;5069;49.306;8.636;2023-04-21T01:18:50;100164.22;;;7.04;100.00
10060;BME280;5069;49.306;8.636;2023-04-21T01:21:54;100160.03;;;6.97;100.00
10060;BME280;5069;49.306;8.636;2023-04-21T01:25:04;100157.47;;;6.94;100.00
10060;BME280;5069;49.306;8.636;2023-04-21T01:28:06;100156.69;;;6.89;100.00
10060;BME280;5069;49.306;8.636;2023-04-21T01:31:07;100160.25;;;6.87;100.00
10060;BME280;5069;49.306;8.636;2023-04-21T01:34:10;100155.03;;;6.87;100.00
10060;BME280;5069;49.306;8.636;2023-04-21T01:37:14;100161.13;;;6.87;100.00
10060;BME280;5069;49.306;8.636;2023-04-21T01:40:16;100165.50;;;6.87;100.00
10060;BME280;5069;49.306;8.636;2023-04-21T01:43:20;100161.13;;;6.87;100.00
10060;BME280;5069;49.306;8.636;2023-04-21T01:46:22;100162.91;;;6.85;100.00
10060;BME280;5069;49.306;8.636;2023-04-21T01:49:23;100162.03;;;6.86;100.00
10060;BME280;5069;49.306;8.636;2023-04-21T01:52:25;100161.78;;;6.97;100.00
10060;BME280;5069;49.306;8.636;2023-04-21T01:55:27;100161.63;;;7.03;100.00
10060;BME280;5069;49.306;8.636;2023-04-21T01:58:29;100163.13;;;7.13;100.00
10060;BME280;5069;49.306;8.636;2023-04-21T02:01:31;100161.28;;;7.18;100.00
10060;BME280;5069;49.306;8.636;2023-04-21T02:04:32;100166.38;;;7.24;100.00
10060;BME280;5069;49.306;8.636;2023-04-21T02:07:34;100164.31;;;7.37;100.00
10060;BME280;5069;49.306;8.636;2023-04-21T02:10:36;100167.78;;;7.39;100.00
10060;BME280;5069;49.306;8.636;2023-04-21T02:13:37;100172.06;;;7.41;100.00
10060;BME280;5069;49.306;8.636;2023-04-21T02:16:39;100173.84;;;7.41;100.00
10060;BME280;5069;49.306;8.636;2023-04-21T02:19:41;100170.56;;;7.33;100.00
10060;BME280;5069;49.306;8.636;2023-04-21T02:22:42;100175.94;;;7.27;100.00
10060;BME280;5069;49.306;8.636;2023-04-21T02:25:43;100175.84;;;7.30;100.00
10060;BME280;5069;49.306;8.636;2023-04-21T02:28:46;100176.69;;;7.32;100.00
10060;BME280;5069;49.306;8.636;2023-04-21T02:31:49;100177.53;;;7.34;100.00
10060;BME280;5069;49.306;8.636;2023-04-21T02:35:05;100180.94;;;7.36;100.00
10060;BME280;5069;49.306;8.636;2023-04-21T02:38:07;100178.28;;;7.39;100.00
10060;BME280;5069;49.306;8.636;2023-04-21T02:41:09;100187.88;;;7.40;100.00
10060;BME280;5069;49.306;8.636;2023-04-21T02:44:10;100187.03;;;7.38;100.00
10060;BME280;5069;49.306;8.636;2023-04-21T02:47:14;100185.25;;;7.40;100.00
10060;BME280;5069;49.306;8.636;2023-04-21T02:50:16;100185.31;;;7.37;100.00
10060;BME280;5069;49.306;8.636;2023-04-21T02:53:21;100169.59;;;7.35;100.00
10060;BME280;5069;49.306;8.636;2023-04-21T02:56:22;100174.06;;;7.32;100.00
10060;BME280;5069;49.306;8.636;2023-04-21T02:59:25;100176.78;;;7.29;100.00
10060;BME280;5069;49.306;8.636;2023-04-21T03:02:27;100172.44;;;7.28;100.00
10060;BME280;5069;49.306;8.636;2023-04-21T03:05:28;100164.56;;;7.28;100.00
10060;BME280;5069;49.306;8.636;2023-04-21T03:08:30;100167.25;;;7.25;100.00
10060;BME280;5069;49.306;8.636;2023-04-21T03:11:32;100168.25;;;7.19;100.00
10060;BME280;5069;49.306;8.636;2023-04-21T03:14:34;100172.63;;;7.19;100.00
10060;BME280;5069;49.306;8.636;2023-04-21T03:17:36;100172.09;;;7.04;100.00
10060;BME280;5069;49.306;8.636;2023-04-21T03:20:37;100165.88;;;6.70;100.00
10060;BME280;5069;49.306;8.636;2023-04-21T03:23:39;100157.97;;;6.32;100.00
10060;BME280;5069;49.306;8.636;2023-04-21T03:26:40;100160.00;;;6.16;100.00
10060;BME280;5069;49.306;8.636;2023-04-21T03:29:42;100163.53;;;6.15;100.00
10060;BME280;5069;49.306;8.636;2023-04-21T03:32:43;100157.47;;;6.11;100.00
10060;BME280;5069;49.306;8.636;2023-04-21T03:35:45;100169.84;;;6.03;100.00
10060;BME280;5069;49.306;8.636;2023-04-21T03:38:46;100168.00;;;6.08;100.00
10060;BME280;5069;49.306;8.636;2023-04-21T03:41:48;100165.34;;;6.10;100.00
10060;BME280;5069;49.306;8.636;2023-04-21T03:44:49;100166.31;;;6.04;100.00
10060;BME280;5069;49.306;8.636;2023-04-21T03:47:54;100172.53;;;5.99;100.00
10060;BME280;5069;49.306;8.636;2023-04-21T03:50:56;100168.38;;;5.89;100.00
10060;BME280;5069;49.306;8.636;2023-04-21T03:53:57;100166.88;;;5.74;100.00
10060;BME280;5069;49.306;8.636;2023-04-21T03:56:59;100166.28;;;5.57;100.00
10060;BME280;5069;49.306;8.636;2023-04-21T04:00:00;100159.41;;;5.51;100.00
10060;BME280;5069;49.306;8.636;2023-04-21T04:03:12;100156.06;;;5.41;100.00
10060;BME280;5069;49.306;8.636;2023-04-21T04:06:14;100151.66;;;5.47;100.00
10060;BME280;5069;49.306;8.636;2023-04-21T04:09:15;100158.44;;;5.57;100.00
10060;BME280;5069;49.306;8.636;2023-04-21T04:12:17;100156.72;;;5.56;100.00
10060;BME280;5069;49.306;8.636;2023-04-21T04:15:18;100155.09;;;5.47;100.00
10060;BME280;5069;49.306;8.636;2023-04-21T04:18:20;100157.88;;;5.39;100.00
10060;BME280;5069;49.306;8.636;2023-04-21T04:21:22;100170.94;;;5.39;100.00
10060;BME280;5069;49.306;8.636;2023-04-21T04:24:23;100166.59;;;5.38;100.00
10060;BME280;5069;49.306;8.636;2023-04-21T04:27:26;100161.53;;;5.29;100.00
10060;BME280;5069;49.306;8.636;2023-04-21T04:30:28;100158.94;;;5.26;100.00
10060;BME280;5069;49.306;8.636;2023-04-21T04:33:29;100162.69;;;5.10;100.00
10060;BME280;5069;49.306;8.636;2023-04-21T04:36:31;100159.47;;;4.90;100.00
10060;BME280;5069;49.306;8.636;2023-04-21T04:39:33;100155.25;;;4.83;100.00
10060;BME280;5069;49.306;8.636;2023-04-21T04:42:37;100155.34;;;4.77;100.00
10060;BME280;5069;49.306;8.636;2023-04-21T04:45:40;100164.75;;;4.87;100.00
10060;BME280;5069;49.306;8.636;2023-04-21T04:48:44;100176.09;;;4.84;100.00
10060;BME280;5069;49.306;8.636;2023-04-21T04:51:45;100171.81;;;4.82;100.00
10060;BME280;5069;49.306;8.636;2023-04-21T04:54:46;100172.59;;;4.87;100.00
10060;BME280;5069;49.306;8.636;2023-04-21T04:57:48;100168.31;;;4.83;100.00
10060;BME280;5069;49.306;8.636;2023-04-21T05:00:50;100168.31;;;4.83;100.00
10060;BME280;5069;49.306;8.636;2023-04-21T05:03:51;100167.28;;;4.93;100.00
10060;BME280;5069;49.306;8.636;2023-04-21T05:06:53;100178.34;;;5.10;100.00
10060;BME280;5069;49.306;8.636;2023-04-21T05:09:54;100183.44;;;5.19;100.00
10060;BME280;5069;49.306;8.636;2023-04-21T05:12:55;100180.69;;;5.28;100.00
10060;BME280;5069;49.306;8.636;2023-04-21T05:15:57;100184.88;;;5.38;100.00
10060;BME280;5069;49.306;8.636;2023-04-21T05:19:03;100188.34;;;5.40;100.00
10060;BME280;5069;49.306;8.636;2023-04-21T05:22:04;100192.53;;;5.52;100.00
10060;BME280;5069;49.306;8.636;2023-04-21T05:25:10;100186.47;;;5.49;100.00
10060;BME280;5069;49.306;8.636;2023-04-21T05:28:15;100190.75;;;5.53;100.00
10060;BME280;5069;49.306;8.636;2023-04-21T05:31:16;100198.56;;;5.53;100.00
10060;BME280;5069;49.306;8.636;2023-04-21T05:34:19;100201.09;;;5.59;100.00
10060;BME280;5069;49.306;8.636;2023-04-21T05:37:21;100198.28;;;5.71;100.00
10060;BME280;5069;49.306;8.636;2023-04-21T05:40:22;100205.94;;;5.83;100.00
10060;BME280;5069;49.306;8.636;2023-04-21T05:43:24;100201.41;;;5.93;100.00
10060;BME280;5069;49.306;8.636;2023-04-21T05:46:25;100209.03;;;6.05;100.00
10060;BME280;5069;49.306;8.636;2023-04-21T05:49:27;100217.75;;;6.07;100.00
10060;BME280;5069;49.306;8.636;2023-04-21T05:52:29;100217.44;;;6.22;100.00
10060;BME280;5069;49.306;8.636;2023-04-21T05:55:33;100215.47;;;6.35;100.00
10060;BME280;5069;49.306;8.636;2023-04-21T05:58:35;100211.00;;;6.41;100.00
10060;BME280;5069;49.306;8.636;2023-04-21T06:01:38;100220.47;;;6.47;100.00
10060;BME280;5069;49.306;8.636;2023-04-21T06:04:41;100217.63;;;6.57;100.00
10060;BME280;5069;49.306;8.636;2023-04-21T06:07:43;100220.06;;;6.67;100.00
10060;BME280;5069;49.306;8.636;2023-04-21T06:10:45;100226.94;;;6.72;100.00
10060;BME280;5069;49.306;8.636;2023-04-21T06:13:46;100230.25;;;6.82;100.00
10060;BME280;5069;49.306;8.636;2023-04-21T06:16:48;100229.13;;;6.93;100.00
10060;BME280;5069;49.306;8.636;2023-04-21T06:19:50;100228.88;;;7.05;100.00
10060;BME280;5069;49.306;8.636;2023-04-21T06:22:54;100219.00;;;7.17;100.00
10060;BME280;5069;49.306;8.636;2023-04-21T06:26:02;100219.63;;;7.28;100.00
10060;BME280;5069;49.306;8.636;2023-04-21T06:29:05;100213.22;;;7.39;100.00
10060;BME280;5069;49.306;8.636;2023-04-21T06:32:07;100224.09;;;7.60;100.00
10060;BME280;5069;49.306;8.636;2023-04-21T06:35:08;100233.28;;;7.77;100.00
10060;BME280;5069;49.306;8.636;2023-04-21T06:38:09;100227.59;;;7.94;100.00
10060;BME280;5069;49.306;8.636;2023-04-21T06:41:12;100225.72;;;7.99;100.00
10060;BME280;5069;49.306;8.636;2023-04-21T06:44:13;100226.28;;;8.12;100.00
10060;BME280;5069;49.306;8.636;2023-04-21T06:47:16;100237.97;;;8.34;100.00
10060;BME280;5069;49.306;8.636;2023-04-21T06:50:17;100223.84;;;8.38;100.00
10060;BME280;5069;49.306;8.636;2023-04-21T06:53:19;100222.03;;;8.40;100.00
10060;BME280;5069;49.306;8.636;2023-04-21T06:56:22;100224.53;;;8.45;100.00
10060;BME280;5069;49.306;8.636;2023-04-21T06:59:25;100219.16;;;8.49;100.00
10060;BME280;5069;49.306;8.636;2023-04-21T07:02:26;100209.59;;;8.47;100.00
10060;BME280;5069;49.306;8.636;2023-04-21T07:05:30;100206.53;;;8.31;100.00
10060;BME280;5069;49.306;8.636;2023-04-21T07:08:32;100194.88;;;8.41;100.00
10060;BME280;5069;49.306;8.636;2023-04-21T07:11:33;100196.66;;;8.39;100.00
10060;BME280;5069;49.306;8.636;2023-04-21T07:14:36;100200.25;;;8.37;100.00
10060;BME280;5069;49.306;8.636;2023-04-21T07:17:37;100190.78;;;8.31;100.00
10060;BME280;5069;49.306;8.636;2023-04-21T07:20:39;100183.47;;;8.42;100.00
10060;BME280;5069;49.306;8.636;2023-04-21T07:23:42;100184.22;;;8.46;100.00
10060;BME280;5069;49.306;8.636;2023-04-21T07:26:43;100193.59;;;8.54;100.00
10060;BME280;5069;49.306;8.636;2023-04-21T07:29:45;100193.88;;;8.76;100.00
10060;BME280;5069;49.306;8.636;2023-04-21T07:32:46;100199.34;;;8.98;100.00
10060;BME280;5069;49.306;8.636;2023-04-21T07:35:49;100190.19;;;9.11;100.00
10060;BME280;5069;49.306;8.636;2023-04-21T07:38:52;100186.34;;;9.21;100.00
10060;BME280;5069;49.306;8.636;2023-04-21T07:41:53;100186.06;;;9.30;100.00
10060;BME280;5069;49.306;8.636;2023-04-21T07:44:56;100189.63;;;9.56;100.00
10060;BME280;5069;49.306;8.636;2023-04-21T07:47:57;100180.34;;;9.70;100.00
10060;BME280;5069;49.306;8.636;2023-04-21T07:50:59;100174.22;;;9.96;100.00
10060;BME280;5069;49.306;8.636;2023-04-21T07:54:02;100165.47;;;10.20;100.00
10060;BME280;5069;49.306;8.636;2023-04-21T07:57:04;100172.38;;;10.24;100.00
10060;BME280;5069;49.306;8.636;2023-04-21T08:00:07;100162.81;;;10.45;100.00
10060;BME280;5069;49.306;8.636;2023-04-21T08:03:15;100169.19;;;10.63;100.00
10060;BME280;5069;49.306;8.636;2023-04-21T08:06:18;100164.25;;;10.77;100.00
10060;BME280;5069;49.306;8.636;2023-04-21T08:09:20;100168.16;;;10.90;100.00
10060;BME280;5069;49.306;8.636;2023-04-21T08:12:21;100169.25;;;11.06;100.00
10060;BME280;5069;49.306;8.636;2023-04-21T08:15:25;100166.34;;;11.36;99.98
10060;BME280;5069;49.306;8.636;2023-04-21T08:18:28;100163.13;;;11.71;95.27
10060;BME280;5069;49.306;8.636;2023-04-21T08:21:29;100154.56;;;11.86;94.94
10060;BME280;5069;49.306;8.636;2023-04-21T08:24:33;100163.53;;;12.02;90.98
10060;BME280;5069;49.306;8.636;2023-04-21T08:27:38;100166.31;;;11.79;93.01
10060;BME280;5069;49.306;8.636;2023-04-21T08:30:40;100162.13;;;11.74;94.13
10060;BME280;5069;49.306;8.636;2023-04-21T08:33:42;100152.72;;;11.88;94.20
10060;BME280;5069;49.306;8.636;2023-04-21T08:36:58;100147.44;;;11.88;93.65
10060;BME280;5069;49.306;8.636;2023-04-21T08:40:00;100145.59;;;12.11;93.20
10060;BME280;5069;49.306;8.636;2023-04-21T08:43:04;100146.63;;;12.47;91.38
10060;BME280;5069;49.306;8.636;2023-04-21T08:46:08;100137.53;;;12.71;87.92
10060;BME280;5069;49.306;8.636;2023-04-21T08:49:11;100137.69;;;12.68;87.58
10060;BME280;5069;49.306;8.636;2023-04-21T08:52:17;100145.09;;;12.41;88.26
10060;BME280;5069;49.306;8.636;2023-04-21T08:55:19;100132.13;;;12.74;90.09
10060;BME280;5069;49.306;8.636;2023-04-21T08:58:22;100132.97;;;13.12;86.78
10060;BME280;5069;49.306;8.636;2023-04-21T09:01:24;100134.53;;;12.79;83.79
10060;BME280;5069;49.306;8.636;2023-04-21T09:04:28;100125.22;;;12.70;85.35
10060;BME280;5069;49.306;8.636;2023-04-21T09:07:32;100124.59;;;12.65;87.56
10060;BME280;5069;49.306;8.636;2023-04-21T09:10:44;100117.81;;;12.78;86.91
10060;BME280;5069;49.306;8.636;2023-04-21T09:13:48;100105.50;;;13.15;87.23
10060;BME280;5069;49.306;8.636;2023-04-21T09:16:58;100104.91;;;13.08;82.87
10060;BME280;5069;49.306;8.636;2023-04-21T09:20:18;100100.88;;;13.37;83.85
10060;BME280;5069;49.306;8.636;2023-04-21T09:23:22;100103.63;;;13.70;80.31
10060;BME280;5069;49.306;8.636;2023-04-21T09:26:26;100101.50;;;13.94;77.75
10060;BME280;5069;49.306;8.636;2023-04-21T09:29:27;100089.13;;;13.77;74.81
10060;BME280;5069;49.306;8.636;2023-04-21T09:32:28;100103.22;;;13.95;75.27
10060;BME280;5069;49.306;8.636;2023-04-21T09:35:34;100104.50;;;14.21;73.78
10060;BME280;5069;49.306;8.636;2023-04-21T09:38:37;100097.59;;;14.01;72.25
10060;BME280;5069;49.306;8.636;2023-04-21T09:41:39;100098.53;;;14.33;72.46
10060;BME280;5069;49.306;8.636;2023-04-21T09:44:41;100098.78;;;14.45;70.81
10060;BME280;5069;49.306;8.636;2023-04-21T09:47:58;100093.63;;;14.58;70.21
10060;BME280;5069;49.306;8.636;2023-04-21T09:51:01;100091.16;;;14.22;71.28
10060;BME280;5069;49.306;8.636;2023-04-21T09:54:30;100086.59;;;14.41;72.48
10060;BME280;5069;49.306;8.636;2023-04-21T09:57:37;100086.13;;;14.66;70.85
10060;BME280;5069;49.306;8.636;2023-04-21T10:00:39;100089.03;;;14.62;70.95
10060;BME280;5069;49.306;8.636;2023-04-21T10:03:42;100097.34;;;14.87;69.99
10060;BME280;5069;49.306;8.636;2023-04-21T10:07:10;100096.22;;;14.60;69.40
10060;BME280;5069;49.306;8.636;2023-04-21T10:13:25;100083.06;;;14.89;68.03
10060;BME280;5069;49.306;8.636;2023-04-21T10:16:27;100082.00;;;15.23;67.90
10060;BME280;5069;49.306;8.636;2023-04-21T10:19:32;100075.28;;;15.32;66.42
10060;BME280;5069;49.306;8.636;2023-04-21T10:22:41;100073.91;;;15.41;66.95
10060;BME280;5069;49.306;8.636;2023-04-21T10:25:47;100084.53;;;15.41;66.66
10060;BME280;5069;49.306;8.636;2023-04-21T10:29:02;100076.63;;;15.39;66.45
10060;BME280;5069;49.306;8.636;2023-04-21T10:32:05;100080.38;;;15.51;66.53
10060;BME280;5069;49.306;8.636;2023-04-21T10:35:23;100072.56;;;15.63;66.16
10060;BME280;5069;49.306;8.636;2023-04-21T10:38:39;100068.91;;;15.66;66.79
10060;BME280;5069;49.306;8.636;2023-04-21T10:41:44;100067.19;;;15.49;67.21
10060;BME280;5069;49.306;8.636;2023-04-21T10:47:59;100048.50;;;15.51;69.36
10060;BME280;5069;49.306;8.636;2023-04-21T10:51:03;100045.19;;;15.47;69.57
10060;BME280;5069;49.306;8.636;2023-04-21T10:54:05;100042.13;;;15.69;70.32
10060;BME280;5069;49.306;8.636;2023-04-21T10:57:09;100039.34;;;16.00;69.62
10060;BME280;5069;49.306;8.636;2023-04-21T11:00:20;100026.03;;;16.15;68.92
10060;BME280;5069;49.306;8.636;2023-04-21T11:03:33;100020.50;;;16.32;67.87
10060;BME280;5069;49.306;8.636;2023-04-21T11:06:37;100011.19;;;16.25;67.10
10060;BME280;5069;49.306;8.636;2023-04-21T11:09:42;100008.25;;;16.29;68.80
10060;BME280;5069;49.306;8.636;2023-04-21T11:12:43;100006.34;;;16.31;67.90
10060;BME280;5069;49.306;8.636;2023-04-21T11:16:05;100003.16;;;16.53;67.80
10060;BME280;5069;49.306;8.636;2023-04-21T11:19:07;100006.69;;;16.68;68.14
10060;BME280;5069;49.306;8.636;2023-04-21T11:22:09;99996.50;;;16.74;66.93
10060;BME280;5069;49.306;8.636;2023-04-21T11:25:17;100001.78;;;16.88;65.63
10060;BME280;5069;49.306;8.636;2023-04-21T11:28:20;100014.53;;;16.83;66.25
10060;BME280;5069;49.306;8.636;2023-04-21T11:31:22;100005.75;;;16.96;63.15
10060;BME280;5069;49.306;8.636;2023-04-21T11:34:28;100000.56;;;17.07;63.17
10060;BME280;5069;49.306;8.636;2023-04-21T11:37:31;99995.69;;;17.13;62.71
10060;BME280;5069;49.306;8.636;2023-04-21T11:40:46;99991.34;;;17.25;61.69
10060;BME280;5069;49.306;8.636;2023-04-21T11:43:49;99984.31;;;17.24;61.90
10060;BME280;5069;49.306;8.636;2023-04-21T11:46:50;99981.97;;;17.32;63.05
10060;BME280;5069;49.306;8.636;2023-04-21T11:49:55;99967.94;;;17.43;62.89
10060;BME280;5069;49.306;8.636;2023-04-21T11:52:57;99974.47;;;17.64;61.46
10060;BME280;5069;49.306;8.636;2023-04-21T11:55:59;99976.06;;;17.66;61.24
10060;BME280;5069;49.306;8.636;2023-04-21T11:59:05;99983.75;;;17.71;59.89
10060;BME280;5069;49.306;8.636;2023-04-21T12:02:12;99979.69;;;17.78;59.99
10060;BME280;5069;49.306;8.636;2023-04-21T12:05:15;99981.41;;;17.92;59.62
10060;BME280;5069;49.306;8.636;2023-04-21T12:08:17;99983.31;;;17.90;60.75
10060;BME280;5069;49.306;8.636;2023-04-21T12:11:20;99984.34;;;18.00;61.25
10060;BME280;5069;49.306;8.636;2023-04-21T12:14:23;99981.16;;;17.95;60.64
10060;BME280;5069;49.306;8.636;2023-04-21T12:17:25;99980.53;;;17.79;61.33
10060;BME280;5069;49.306;8.636;2023-04-21T12:20:28;99987.59;;;17.80;61.86
10060;BME280;5069;49.306;8.636;2023-04-21T12:23:30;99989.28;;;17.81;60.52
10060;BME280;5069;49.306;8.636;2023-04-21T12:26:31;99990.56;;;18.00;60.89
10060;BME280;5069;49.306;8.636;2023-04-21T12:29:33;99986.91;;;18.27;60.94
10060;BME280;5069;49.306;8.636;2023-04-21T12:32:38;99970.47;;;18.33;60.82
10060;BME280;5069;49.306;8.636;2023-04-21T12:35:39;99963.22;;;18.22;59.69
10060;BME280;5069;49.306;8.636;2023-04-21T12:38:41;99962.66;;;18.30;60.29
10060;BME280;5069;49.306;8.636;2023-04-21T12:41:44;99961.66;;;18.43;59.12
10060;BME280;5069;49.306;8.636;2023-04-21T12:44:47;99961.66;;;18.43;59.29
10060;BME280;5069;49.306;8.636;2023-04-21T12:47:49;99955.22;;;18.22;59.48
10060;BME280;5069;49.306;8.636;2023-04-21T12:50:51;99945.66;;;18.43;59.70
10060;BME280;5069;49.306;8.636;2023-04-21T12:53:52;99945.22;;;18.49;60.33
10060;BME280;5069;49.306;8.636;2023-04-21T12:56:55;99956.78;;;18.74;60.57
10060;BME280;5069;49.306;8.636;2023-04-21T12:59:59;99950.91;;;18.92;58.78
10060;BME280;5069;49.306;8.636;2023-04-21T13:03:05;99948.88;;;18.96;58.41
10060;BME280;5069;49.306;8.636;2023-04-21T13:06:07;99945.91;;;18.88;57.92
10060;BME280;5069;49.306;8.636;2023-04-21T13:09:09;99950.00;;;18.81;57.43
10060;BME280;5069;49.306;8.636;2023-04-21T13:12:11;99936.19;;;18.87;58.42
10060;BME280;5069;49.306;8.636;2023-04-21T13:15:14;99932.00;;;18.95;56.40
10060;BME280;5069;49.306;8.636;2023-04-21T13:18:16;99934.06;;;19.03;55.70
10060;BME280;5069;49.306;8.636;2023-04-21T13:21:18;99931.78;;;19.10;55.82
10060;BME280;5069;49.306;8.636;2023-04-21T13:24:20;99936.81;;;19.25;55.10
10060;BME280;5069;49.306;8.636;2023-04-21T13:27:22;99925.91;;;19.39;54.97
10060;BME280;5069;49.306;8.636;2023-04-21T13:30:23;99925.84;;;19.52;54.85
10060;BME280;5069;49.306;8.636;2023-04-21T13:33:24;99908.25;;;19.72;53.97
10060;BME280;5069;49.306;8.636;2023-04-21T13:36:26;99904.31;;;19.54;54.37
10060;BME280;5069;49.306;8.636;2023-04-21T13:39:27;99905.34;;;19.75;53.62
10060;BME280;5069;49.306;8.636;2023-04-21T13:42:29;99909.47;;;19.79;54.15
10060;BME280;5069;49.306;8.636;2023-04-21T13:45:31;99900.34;;;19.82;53.35
10060;BME280;5069;49.306;8.636;2023-04-21T13:48:33;99891.22;;;19.95;53.16
10060;BME280;5069;49.306;8.636;2023-04-21T13:51:34;99893.28;;;20.03;53.34
10060;BME280;5069;49.306;8.636;2023-04-21T13:54:35;99884.38;;;20.13;52.95
10060;BME280;5069;49.306;8.636;2023-04-21T13:57:38;99897.88;;;20.12;52.21
10060;BME280;5069;49.306;8.636;2023-04-21T14:00:40;99888.28;;;20.09;52.90
10060;BME280;5069;49.306;8.636;2023-04-21T14:03:43;99891.16;;;20.29;51.91
10060;BME280;5069;49.306;8.636;2023-04-21T14:06:44;99886.34;;;19.89;52.35
10060;BME280;5069;49.306;8.636;2023-04-21T14:09:46;99877.13;;;19.93;52.18
10060;BME280;5069;49.306;8.636;2023-04-21T14:12:47;99877.34;;;20.01;51.55
10060;BME280;5069;49.306;8.636;2023-04-21T14:15:49;99862.25;;;20.00;51.96
10060;BME280;5069;49.306;8.636;2023-04-21T14:18:50;99849.56;;;20.36;51.30
10060;BME280;5069;49.306;8.636;2023-04-21T14:21:52;99844.91;;;20.49;51.14
10060;BME280;5069;49.306;8.636;2023-04-21T14:24:54;99838.53;;;20.61;50.73
10060;BME280;5069;49.306;8.636;2023-04-21T14:27:55;99823.06;;;20.33;50.96
10060;BME280;5069;49.306;8.636;2023-04-21T14:30:57;99818.06;;;20.60;51.10
10060;BME280;5069;49.306;8.636;2023-04-21T14:33:58;99807.31;;;20.71;49.78
10060;BME280;5069;49.306;8.636;2023-04-21T14:37:00;99808.16;;;20.92;50.01
10060;BME280;5069;49.306;8.636;2023-04-21T14:40:01;99813.84;;;21.20;49.63
10060;BME280;5069;49.306;8.636;2023-04-21T14:43:04;99810.38;;;21.29;49.29
10060;BME280;5069;49.306;8.636;2023-04-21T14:46:06;99798.44;;;21.42;48.55
10060;BME280;5069;49.306;8.636;2023-04-21T14:49:08;99808.03;;;21.45;48.86
10060;BME280;5069;49.306;8.636;2023-04-21T14:52:09;99804.69;;;21.22;46.63
10060;BME280;5069;49.306;8.636;2023-04-21T14:55:12;99797.31;;;20.73;48.05
10060;BME280;5069;49.306;8.636;2023-04-21T14:58:13;99797.19;;;20.95;48.90
10060;BME280;5069;49.306;8.636;2023-04-21T15:01:15;99792.56;;;21.18;48.17
10060;BME280;5069;49.306;8.636;2023-04-21T15:04:17;99786.84;;;20.70;48.74
10060;BME280;5069;49.306;8.636;2023-04-21T15:07:19;99775.03;;;20.93;48.46
10060;BME280;5069;49.306;8.636;2023-04-21T15:10:25;99782.94;;;21.16;48.96
10060;BME280;5069;49.306;8.636;2023-04-21T15:13:26;99787.25;;;21.37;48.53
10060;BME280;5069;49.306;8.636;2023-04-21T15:16:29;99787.06;;;21.60;48.30
10060;BME280;5069;49.306;8.636;2023-04-21T15:19:31;99784.38;;;21.60;47.88
10060;BME280;5069;49.306;8.636;2023-04-21T15:22:33;99783.72;;;21.37;47.95
10060;BME280;5069;49.306;8.636;2023-04-21T15:25:34;99785.28;;;21.30;48.31
10060;BME280;5069;49.306;8.636;2023-04-21T15:28:36;99786.84;;;21.42;47.84
10060;BME280;5069;49.306;8.636;2023-04-21T15:31:39;99788.03;;;21.19;48.22
10060;BME280;5069;49.306;8.636;2023-04-21T15:34:41;99783.72;;;21.37;48.17
10060;BME280;5069;49.306;8.636;2023-04-21T15:37:42;99783.78;;;21.47;48.29
10060;BME280;5069;49.306;8.636;2023-04-21T15:40:44;99790.97;;;21.16;47.95
10060;BME280;5069;49.306;8.636;2023-04-21T15:44:01;99785.78;;;21.03;48.27
10060;BME280;5069;49.306;8.636;2023-04-21T15:47:02;99786.84;;;21.12;48.58
10060;BME280;5069;49.306;8.636;2023-04-21T15:50:04;99783.56;;;21.29;48.84
10060;BME280;5069;49.306;8.636;2023-04-21T15:53:06;99778.56;;;20.73;49.85
10060;BME280;5069;49.306;8.636;2023-04-21T15:56:09;99773.78;;;20.24;50.94
10060;BME280;5069;49.306;8.636;2023-04-21T15:59:12;99767.47;;;19.93;51.78
10060;BME280;5069;49.306;8.636;2023-04-21T16:02:13;99777.19;;;19.72;53.23
10060;BME280;5069;49.306;8.636;2023-04-21T16:05:15;99767.22;;;19.85;53.23
10060;BME280;5069;49.306;8.636;2023-04-21T16:08:17;99763.31;;;19.89;53.14
10060;BME280;5069;49.306;8.636;2023-04-21T16:11:18;99765.03;;;19.79;53.15
10060;BME280;5069;49.306;8.636;2023-04-21T16:14:20;99769.69;;;19.55;53.24
10060;BME280;5069;49.306;8.636;2023-04-21T16:17:21;99769.69;;;19.55;53.59
10060;BME280;5069;49.306;8.636;2023-04-21T16:20:27;99770.66;;;19.54;53.77